createdAt,value
2022-09-02T00:02:46.261Z,101807.71
2022-09-02T00:07:51.887Z,101807.94
2022-09-02T00:12:57.465Z,101808.17
2022-09-02T00:18:03.447Z,101809.59
2022-09-02T00:23:09.488Z,101811.08
2022-09-02T00:28:16.564Z,101809.68
2022-09-02T00:33:22.323Z,101814.89
2022-09-02T00:38:28.661Z,101806.89
2022-09-02T00:43:43.239Z,101808.84
2022-09-02T00:49:00.989Z,101803.95
2022-09-02T00:54:07.665Z,101811.43
2022-09-02T00:59:16.502Z,101804.28
2022-09-02T01:04:22.840Z,101801.16
2022-09-02T01:09:28.741Z,101794.92
2022-09-02T01:14:35.298Z,101804.79
2022-09-02T01:19:44.007Z,101796.73
2022-09-02T01:24:49.897Z,101798.30
2022-09-02T01:29:58.669Z,101797.97
2022-09-02T01:35:04.461Z,101790.62
2022-09-02T01:40:12.569Z,101793.01
2022-09-02T01:45:19.911Z,101788.98
2022-09-02T01:50:26.606Z,101790.94
2022-09-02T01:55:33.077Z,101788.03
2022-09-02T02:00:39.108Z,101791.12
2022-09-02T02:05:45.351Z,101784.52
2022-09-02T02:10:52.040Z,101783.39
2022-09-02T02:15:59.046Z,101784.41
2022-09-02T02:21:04.905Z,101783.13
2022-09-02T02:26:11.298Z,101781.80
2022-09-02T02:31:18.968Z,101775.70
2022-09-02T02:36:25.446Z,101780.27
2022-09-02T02:41:32.660Z,101772.36
2022-09-02T02:46:39.186Z,101771.34
2022-09-02T02:51:45.674Z,101777.11
2022-09-02T02:56:51.434Z,101780.34
2022-09-02T03:01:57.785Z,101775.44
2022-09-02T03:07:07.059Z,101770.48
2022-09-02T03:12:12.736Z,101766.71
2022-09-02T03:17:19.426Z,101766.64
2022-09-02T03:22:25.420Z,101759.79
2022-09-02T03:27:31.500Z,101765.87
2022-09-02T03:32:38.376Z,101758.30
2022-09-02T03:37:44.059Z,101756.34
2022-09-02T03:42:50.934Z,101759.86
2022-09-02T03:47:57.022Z,101750.98
2022-09-02T03:53:04.627Z,101759.57
2022-09-02T03:58:10.412Z,101758.38
2022-09-02T04:03:16.633Z,101761.56
2022-09-02T04:08:24.834Z,101759.48
2022-09-02T04:13:31.390Z,101764.03
2022-09-02T04:18:37.062Z,101763.30
2022-09-02T04:23:43.543Z,101766.12
2022-09-02T04:28:50.672Z,101766.66
2022-09-02T04:33:57.183Z,101764.64
2022-09-02T04:39:03.527Z,101764.56
2022-09-02T04:44:10.930Z,101763.77
2022-09-02T04:49:18.531Z,101759.75
2022-09-02T04:54:24.965Z,101765.37
2022-09-02T04:59:31.306Z,101758.82
2022-09-02T05:04:41.943Z,101747.59
2022-09-02T05:09:50.504Z,101746.34
2022-09-02T05:14:59.318Z,101746.84
2022-09-02T05:20:09.314Z,101749.02
2022-09-02T05:25:15.103Z,101748.55
2022-09-02T05:30:22.650Z,101753.06
2022-09-02T05:35:29.871Z,101748.44
2022-09-02T05:40:38.627Z,101746.42
2022-09-02T05:45:45.491Z,101748.62
2022-09-02T05:50:57.410Z,101749.55
2022-09-02T05:55:59.138Z,101751.25
2022-09-02T06:01:11.744Z,101751.67
2022-09-02T06:06:18.783Z,101747.59
2022-09-02T06:11:25.052Z,101749.13
2022-09-02T06:16:32.153Z,101750.38
2022-09-02T06:21:40.344Z,101755.41
2022-09-02T06:26:46.289Z,101755.99
2022-09-02T06:31:52.527Z,101756.14
2022-09-02T06:36:59.539Z,101774.28
2022-09-02T06:42:05.504Z,101771.02
2022-09-02T06:47:12.703Z,101774.33
2022-09-02T06:52:18.588Z,101772.02
2022-09-02T06:57:31.505Z,101770.59
2022-09-02T07:02:35.402Z,101774.05
2022-09-02T07:07:45.132Z,101773.55
2022-09-02T07:12:51.999Z,101770.92
2022-09-02T07:17:57.671Z,101772.55
2022-09-02T07:23:04.969Z,101780.02
2022-09-02T07:28:13.270Z,101786.32
2022-09-02T07:33:19.735Z,101784.59
2022-09-02T07:38:25.552Z,101785.28
2022-09-02T07:43:33.268Z,101786.88
2022-09-02T07:48:39.864Z,101784.60
2022-09-02T07:53:45.732Z,101788.24
2022-09-02T07:58:51.723Z,101787.09
2022-09-02T08:03:59.463Z,101790.30
2022-09-02T08:09:10.599Z,101783.73
2022-09-02T08:14:19.430Z,101780.33
2022-09-02T08:19:27.551Z,101786.84
2022-09-02T08:24:33.919Z,101784.36
2022-09-02T08:29:40.088Z,101785.05
2022-09-02T08:34:46.058Z,101786.03
2022-09-02T08:39:51.688Z,101787.86
2022-09-02T08:45:00.233Z,101786.13
2022-09-02T08:50:08.908Z,101787.98
2022-09-02T08:55:24.657Z,101784.97
2022-09-02T09:00:34.011Z,101794.05
2022-09-02T09:05:47.164Z,101783.50
2022-09-02T09:11:15.763Z,101784.84
2022-09-02T09:16:42.015Z,101786.25
2022-09-02T09:21:47.618Z,101786.36
2022-09-02T09:26:55.362Z,101779.76
2022-09-02T09:32:02.046Z,101783.97
2022-09-02T09:37:07.598Z,101775.23
2022-09-02T09:42:16.183Z,101772.63
2022-09-02T09:47:26.185Z,101767.47
2022-09-02T09:52:32.333Z,101765.86
2022-09-02T09:57:38.305Z,101756.94
2022-09-02T10:02:52.889Z,101755.42
2022-09-02T10:08:02.039Z,101752.20
2022-09-02T10:13:28.936Z,101741.87
2022-09-02T10:18:37.527Z,101748.99
2022-09-02T10:23:55.790Z,101744.17
2022-09-02T10:29:17.130Z,101753.31
2022-09-02T10:34:31.603Z,101748.45
2022-09-02T10:39:42.907Z,101745.29
2022-09-02T10:44:59.052Z,101743.73
2022-09-02T10:50:10.817Z,101735.03
2022-09-02T10:55:45.063Z,101741.36
2022-09-02T11:00:53.709Z,101742.59
2022-09-02T11:06:08.050Z,101739.05
2022-09-02T11:11:22.912Z,101732.87
2022-09-02T11:21:52.513Z,101721.90
2022-09-02T11:27:01.352Z,101708.91
2022-09-02T11:32:29.651Z,101711.63
2022-09-02T11:37:53.722Z,101701.28
2022-09-02T11:43:21.941Z,101701.92
2022-09-02T11:48:53.424Z,101701.48
2022-09-02T11:54:01.645Z,101700.12
2022-09-02T11:59:10.966Z,101695.63
2022-09-02T12:09:50.504Z,101692.23
2022-09-02T12:14:59.033Z,101697.25
2022-09-02T12:20:12.683Z,101691.52
2022-09-02T12:25:28.592Z,101692.39
2022-09-02T12:31:04.405Z,101680.55
2022-09-02T12:36:11.296Z,101673.59
2022-09-02T12:41:22.870Z,101670.59
2022-09-02T12:46:49.819Z,101669.02
2022-09-02T12:52:05.060Z,101660.91
2022-09-02T12:57:12.405Z,101663.41
2022-09-02T13:02:26.750Z,101649.42
2022-09-02T13:08:02.326Z,101646.06
2022-09-02T13:13:34.653Z,101646.13
2022-09-02T13:18:43.293Z,101640.61
2022-09-02T13:24:06.978Z,101642.95
2022-09-02T13:29:30.444Z,101638.23
2022-09-02T13:34:35.724Z,101631.58
2022-09-02T13:39:41.262Z,101631.17
2022-09-02T13:44:47.335Z,101630.44
2022-09-02T13:49:55.157Z,101616.09
2022-09-02T13:55:01.165Z,101611.05
2022-09-02T14:00:08.228Z,101608.06
2022-09-02T14:05:21.127Z,101600.73
2022-09-02T14:10:29.274Z,101600.95
2022-09-02T14:15:35.428Z,101600.23
2022-09-02T14:20:43.840Z,101602.63
2022-09-02T14:26:00.460Z,101596.90
2022-09-02T14:31:08.509Z,101589.37
2022-09-02T14:36:21.470Z,101596.95
2022-09-02T14:41:30.253Z,101588.37
2022-09-02T14:46:38.863Z,101586.22
2022-09-02T14:51:50.467Z,101587.82
2022-09-02T14:56:56.271Z,101584.98
2022-09-02T15:02:02.244Z,101583.98
2022-09-02T15:07:07.711Z,101586.28
2022-09-02T15:12:20.114Z,101587.46
2022-09-02T15:17:25.495Z,101585.14
2022-09-02T15:22:31.003Z,101586.36
2022-09-02T15:27:38.276Z,101582.77
2022-09-02T15:32:45.570Z,101580.53
2022-09-02T15:37:52.484Z,101581.95
2022-09-02T15:42:58.049Z,101565.03
2022-09-02T15:48:05.805Z,101566.00
2022-09-02T15:53:11.406Z,101569.14
2022-09-02T15:58:17.072Z,101572.33
2022-09-02T16:03:22.785Z,101564.97
2022-09-02T16:08:28.435Z,101571.14
2022-09-02T16:13:35.203Z,101570.41
2022-09-02T16:18:42.614Z,101567.78
2022-09-02T16:23:49.604Z,101567.50
2022-09-02T16:29:01.401Z,101562.35
2022-09-02T16:34:15.154Z,101552.98
2022-09-02T16:39:21.350Z,101545.05
2022-09-02T16:44:28.256Z,101539.83
2022-09-02T16:49:35.041Z,101541.75
2022-09-02T16:54:41.381Z,101543.73
2022-09-02T16:59:47.095Z,101536.40
2022-09-02T17:04:52.684Z,101529.38
2022-09-02T17:09:59.249Z,101529.69
2022-09-02T17:15:05.328Z,101527.47
2022-09-02T17:20:12.751Z,101527.44
2022-09-02T17:25:18.911Z,101526.38
2022-09-02T17:30:24.437Z,101532.50
2022-09-02T17:35:30.503Z,101533.16
2022-09-02T17:40:54.243Z,101535.37
2022-09-02T17:46:08.734Z,101537.07
2022-09-02T17:51:15.205Z,101535.27
2022-09-02T17:56:28.330Z,101532.37
2022-09-02T18:01:37.126Z,101535.88
2022-09-02T18:06:45.450Z,101537.02
2022-09-02T18:11:51.185Z,101545.42
2022-09-02T18:17:02.804Z,101542.20
2022-09-02T18:22:29.553Z,101545.75
2022-09-02T18:27:53.246Z,101548.21
2022-09-02T18:33:04.645Z,101552.26
2022-09-02T18:38:28.814Z,101555.56
2022-09-02T18:44:01.554Z,101557.62
2022-09-02T18:49:09.623Z,101556.90
2022-09-02T18:54:21.489Z,101551.68
2022-09-02T18:59:40.472Z,101552.14
2022-09-02T19:04:46.036Z,101550.59
2022-09-02T19:09:52.000Z,101554.79
2022-09-02T19:14:57.559Z,101557.81
2022-09-02T19:20:07.840Z,101553.54
2022-09-02T19:25:19.754Z,101558.06
2022-09-02T19:30:27.598Z,101560.80
2022-09-02T19:35:36.049Z,101571.05
2022-09-02T19:40:41.575Z,101567.25
2022-09-02T19:45:49.029Z,101578.72
2022-09-02T19:50:56.176Z,101570.39
2022-09-02T19:56:01.990Z,101581.85
2022-09-02T20:01:08.439Z,101577.56
2022-09-02T20:06:14.097Z,101576.48
2022-09-02T20:11:20.907Z,101571.20
2022-09-02T20:16:29.754Z,101581.59
2022-09-02T20:21:46.671Z,101580.23
2022-09-02T20:27:01.748Z,101585.55
2022-09-02T20:32:36.827Z,101589.27
2022-09-02T20:37:57.013Z,101590.05
2022-09-02T20:43:22.259Z,101585.66
2022-09-02T20:48:53.103Z,101587.03
2022-09-02T20:54:36.561Z,101593.40
2022-09-02T20:59:51.056Z,101593.73
2022-09-02T21:04:59.614Z,101594.93
2022-09-02T21:10:16.093Z,101595.60
2022-09-02T21:15:33.734Z,101600.61
2022-09-02T21:21:06.737Z,101601.00
2022-09-02T21:26:33.192Z,101602.73
2022-09-02T21:31:57.391Z,101610.45
2022-09-02T21:37:04.972Z,101621.42
2022-09-02T21:42:22.549Z,101611.96
2022-09-02T21:47:47.689Z,101612.44
2022-09-02T21:53:02.770Z,101614.06
2022-09-02T21:58:11.412Z,101607.84
2022-09-02T22:03:22.089Z,101610.25
2022-09-02T22:08:45.773Z,101611.78
2022-09-02T22:13:51.450Z,101616.48
2022-09-02T22:19:07.550Z,101617.72
2022-09-02T22:24:15.413Z,101613.37
2022-09-02T22:29:27.500Z,101614.83
2022-09-02T22:34:36.387Z,101616.15
2022-09-02T22:39:53.234Z,101616.73
2022-09-02T22:45:31.143Z,101609.70
2022-09-02T22:50:57.739Z,101621.13
2022-09-02T22:56:11.592Z,101624.30
2022-09-02T23:01:48.443Z,101621.22
2022-09-02T23:06:56.553Z,101622.95
2022-09-02T23:12:25.230Z,101623.03
2022-09-02T23:17:36.833Z,101621.52
2022-09-02T23:23:22.001Z,101621.52
2022-09-02T23:28:42.237Z,101619.59
2022-09-02T23:34:10.447Z,101614.78
2022-09-02T23:39:25.366Z,101616.70
2022-09-02T23:44:32.265Z,101623.91
2022-09-02T23:49:41.257Z,101620.83
2022-09-02T23:55:17.953Z,101615.53
